createdAt,value
2022-09-10T00:00:59.119Z,76.06
2022-09-10T00:03:25.762Z,75.84
2022-09-10T00:05:52.347Z,76.47
2022-09-10T00:08:22.162Z,76.10
2022-09-10T00:10:50.518Z,76.29
2022-09-10T00:13:19.524Z,75.72
2022-09-10T00:15:48.041Z,76.34
2022-09-10T00:18:15.644Z,75.40
2022-09-10T00:20:55.364Z,75.32
2022-09-10T00:23:24.260Z,76.69
2022-09-10T00:25:54.731Z,75.73
2022-09-10T00:28:23.595Z,76.24
2022-09-10T00:30:51.763Z,76.57
2022-09-10T00:33:19.327Z,76.40
2022-09-10T00:35:46.552Z,76.20
2022-09-10T00:38:14.024Z,75.43
2022-09-10T00:40:41.368Z,75.24
2022-09-10T00:43:15.999Z,75.21
2022-09-10T00:45:44.586Z,75.35
2022-09-10T00:48:17.161Z,75.70
2022-09-10T00:50:46.203Z,75.23
2022-09-10T00:53:15.975Z,75.43
2022-09-10T00:55:44.555Z,76.57
2022-09-10T00:58:14.001Z,75.35
2022-09-10T01:00:42.143Z,75.59
2022-09-10T01:03:11.672Z,76.81
2022-09-10T01:05:41.641Z,76.46
2022-09-10T01:08:15.191Z,76.77
2022-09-10T01:10:57.435Z,76.16
2022-09-10T01:13:44.534Z,75.80
2022-09-10T01:16:19.340Z,76.45
2022-09-10T01:19:03.383Z,77.76
2022-09-10T01:21:33.464Z,77.91
2022-09-10T01:24:12.976Z,77.42
2022-09-10T01:26:51.554Z,76.71
2022-09-10T01:29:25.732Z,77.27
2022-09-10T01:31:56.459Z,77.68
2022-09-10T01:34:34.743Z,77.71
2022-09-10T01:37:08.316Z,77.64
2022-09-10T01:39:36.067Z,76.86
2022-09-10T01:42:04.339Z,77.03
2022-09-10T01:44:51.041Z,76.92
2022-09-10T01:47:23.924Z,76.96
2022-09-10T01:49:58.698Z,76.96
2022-09-10T01:52:44.017Z,77.20
2022-09-10T01:55:28.133Z,76.34
2022-09-10T01:58:00.140Z,76.84
2022-09-10T02:00:27.533Z,76.61
2022-09-10T02:03:03.639Z,76.51
2022-09-10T02:05:35.454Z,76.32
2022-09-10T02:08:05.766Z,76.57
2022-09-10T02:10:32.781Z,76.36
2022-09-10T02:12:59.713Z,77.18
2022-09-10T02:15:35.249Z,76.49
2022-09-10T02:18:02.254Z,76.72
2022-09-10T02:20:30.742Z,76.44
2022-09-10T02:22:59.140Z,77.04
2022-09-10T02:25:32.919Z,77.82
2022-09-10T02:28:00.125Z,77.55
2022-09-10T02:30:26.999Z,77.57
2022-09-10T02:32:53.894Z,76.99
2022-09-10T02:35:31.374Z,76.39
2022-09-10T02:37:58.579Z,75.98
2022-09-10T02:40:25.880Z,76.51
2022-09-10T02:42:52.776Z,75.49
2022-09-10T02:45:19.808Z,75.36
2022-09-10T02:47:46.729Z,75.15
2022-09-10T02:50:13.759Z,75.86
2022-09-10T02:52:40.739Z,75.34
2022-09-10T02:55:08.255Z,75.08
2022-09-10T02:57:34.899Z,75.59
2022-09-10T03:00:03.423Z,75.69
2022-09-10T03:02:30.562Z,74.96
2022-09-10T03:04:57.471Z,75.18
2022-09-10T03:07:24.129Z,75.69
2022-09-10T03:09:51.171Z,75.44
2022-09-10T03:12:18.343Z,75.73
2022-09-10T03:14:45.293Z,75.89
2022-09-10T03:17:12.264Z,75.39
2022-09-10T03:19:40.335Z,75.69
2022-09-10T03:22:07.408Z,76.90
2022-09-10T03:24:35.827Z,76.19
2022-09-10T03:27:03.036Z,76.16
2022-09-10T03:29:31.012Z,75.41
2022-09-10T03:31:57.904Z,75.83
2022-09-10T03:34:27.524Z,76.09
2022-09-10T03:36:54.927Z,76.18
2022-09-10T03:39:21.840Z,75.79
2022-09-10T03:41:48.782Z,75.76
2022-09-10T03:44:16.316Z,76.23
2022-09-10T03:46:43.289Z,75.95
2022-09-10T03:49:10.609Z,75.32
2022-09-10T03:51:37.508Z,75.97
2022-09-10T03:54:04.672Z,75.61
2022-09-10T03:56:32.066Z,75.86
2022-09-10T03:59:03.638Z,74.84
2022-09-10T04:01:30.956Z,75.24
2022-09-10T04:03:58.586Z,75.78
2022-09-10T04:06:25.522Z,75.14
2022-09-10T04:08:55.672Z,75.31
2022-09-10T04:11:27.840Z,76.04
2022-09-10T04:13:55.279Z,74.82
2022-09-10T04:16:23.517Z,75.60
2022-09-10T04:18:51.566Z,75.99
2022-09-10T04:21:18.522Z,75.19
2022-09-10T04:23:46.147Z,75.54
2022-09-10T04:26:17.790Z,75.58
2022-09-10T04:28:45.021Z,75.36
2022-09-10T04:31:13.941Z,75.10
2022-09-10T04:33:40.877Z,75.45
2022-09-10T04:36:08.162Z,75.29
2022-09-10T04:38:40.407Z,74.52
2022-09-10T04:41:07.997Z,75.29
2022-09-10T04:43:35.486Z,74.75
2022-09-10T04:46:02.459Z,74.28
2022-09-10T04:48:29.383Z,74.55
2022-09-10T04:51:15.263Z,74.79
2022-09-10T04:53:42.903Z,74.59
2022-09-10T04:56:09.988Z,75.21
2022-09-10T04:58:39.097Z,75.21
2022-09-10T05:01:06.593Z,74.92
2022-09-10T05:03:33.824Z,74.96
2022-09-10T05:06:00.671Z,74.44
2022-09-10T05:08:27.541Z,74.54
2022-09-10T05:10:54.389Z,74.47
2022-09-10T05:13:21.554Z,74.53
2022-09-10T05:15:50.235Z,74.29
2022-09-10T05:18:17.342Z,74.54
2022-09-10T05:20:45.276Z,74.52
2022-09-10T05:23:12.582Z,74.50
2022-09-10T05:25:45.516Z,74.09
2022-09-10T05:28:12.473Z,74.94
2022-09-10T05:30:49.520Z,74.38
2022-09-10T05:33:18.385Z,74.33
2022-09-10T05:35:52.013Z,74.00
2022-09-10T05:38:19.419Z,74.58
2022-09-10T05:40:46.314Z,74.43
2022-09-10T05:43:13.269Z,74.62
2022-09-10T05:45:43.096Z,74.78
2022-09-10T05:48:10.242Z,74.76
2022-09-10T05:50:39.028Z,75.58
2022-09-10T05:53:05.884Z,74.91
2022-09-10T05:55:38.936Z,74.96
2022-09-10T05:58:05.920Z,75.71
2022-09-10T06:00:32.829Z,75.62
2022-09-10T06:02:59.756Z,74.74
2022-09-10T06:05:27.814Z,74.48
2022-09-10T06:07:54.696Z,74.71
2022-09-10T06:10:21.543Z,74.58
2022-09-10T06:12:49.958Z,75.28
2022-09-10T06:15:16.894Z,76.28
2022-09-10T06:17:43.868Z,75.61
2022-09-10T06:20:13.238Z,75.14
2022-09-10T06:22:40.624Z,75.78
2022-09-10T06:25:07.814Z,76.07
2022-09-10T06:27:34.973Z,75.96
2022-09-10T06:30:01.954Z,76.33
2022-09-10T06:32:28.981Z,76.32
2022-09-10T06:34:55.644Z,76.83
2022-09-10T06:37:23.874Z,76.79
2022-09-10T06:39:59.304Z,76.39
2022-09-10T06:42:28.844Z,76.09
2022-09-10T06:45:22.689Z,75.04
2022-09-10T06:48:37.135Z,74.81
2022-09-10T06:50:40.238Z,75.67
2022-09-10T06:53:07.125Z,76.09
2022-09-10T06:55:55.217Z,76.05
2022-09-10T06:58:32.985Z,75.10
2022-09-10T07:01:00.005Z,75.96
2022-09-10T07:03:26.616Z,75.36
2022-09-10T07:05:56.305Z,75.41
2022-09-10T07:08:23.265Z,75.63
2022-09-10T07:10:50.756Z,75.33
2022-09-10T07:13:17.767Z,75.16
2022-09-10T07:15:51.855Z,75.60
2022-09-10T07:18:18.834Z,74.49
2022-09-10T07:20:46.821Z,74.88
2022-09-10T07:23:15.053Z,75.85
2022-09-10T07:25:50.384Z,75.65
2022-09-10T07:28:18.438Z,76.07
2022-09-10T07:30:48.667Z,76.40
2022-09-10T07:33:15.446Z,76.64
2022-09-10T07:35:46.505Z,76.11
2022-09-10T07:38:20.955Z,76.13
2022-09-10T07:40:48.661Z,76.08
2022-09-10T07:43:16.243Z,76.35
2022-09-10T07:45:43.269Z,76.25
2022-09-10T07:48:12.178Z,75.84
2022-09-10T07:50:39.164Z,76.18
2022-09-10T07:53:27.761Z,76.92
2022-09-10T07:56:02.314Z,76.33
2022-09-10T07:58:32.826Z,76.40
2022-09-10T08:01:00.488Z,76.13
2022-09-10T08:03:28.154Z,76.34
2022-09-10T08:05:55.326Z,75.95
2022-09-10T08:08:22.498Z,76.17
2022-09-10T08:10:49.901Z,76.17
2022-09-10T08:13:16.560Z,76.22
2022-09-10T08:15:51.829Z,76.32
2022-09-10T08:18:18.408Z,75.76
2022-09-10T08:20:44.985Z,76.10
2022-09-10T08:23:11.583Z,76.25
2022-09-10T08:25:49.785Z,75.99
2022-09-10T08:28:16.366Z,76.11
2022-09-10T08:30:43.157Z,76.42
2022-09-10T08:33:09.865Z,76.61
2022-09-10T08:35:52.416Z,76.32
2022-09-10T08:38:19.006Z,76.11
2022-09-10T08:40:45.634Z,76.46
2022-09-10T08:43:13.106Z,76.27
2022-09-10T08:45:49.490Z,76.21
2022-09-10T08:48:20.859Z,76.36
2022-09-10T08:50:52.910Z,76.57
2022-09-10T08:53:38.301Z,76.64
2022-09-10T08:56:09.657Z,76.54
2022-09-10T08:58:50.042Z,76.49
2022-09-10T09:01:25.481Z,76.73
2022-09-10T09:03:55.410Z,76.72
2022-09-10T09:06:41.489Z,76.70
2022-09-10T09:09:14.802Z,76.21
2022-09-10T09:12:00.945Z,76.30
2022-09-10T09:14:28.193Z,76.14
2022-09-10T09:17:27.699Z,76.29
2022-09-10T09:20:10.619Z,76.42
2022-09-10T09:22:43.902Z,76.34
2022-09-10T09:25:24.043Z,76.19
2022-09-10T09:27:57.321Z,75.61
2022-09-10T09:30:49.560Z,75.10
2022-09-10T09:33:22.767Z,74.96
2022-09-10T09:35:59.509Z,74.84
2022-09-10T09:38:30.715Z,75.42
2022-09-10T09:40:59.512Z,75.39
2022-09-10T09:43:38.437Z,75.50
2022-09-10T09:46:13.874Z,75.79
2022-09-10T09:48:42.303Z,76.04
2022-09-10T09:51:13.697Z,75.79
2022-09-10T09:53:45.121Z,75.64
2022-09-10T09:56:24.554Z,75.91
2022-09-10T09:58:52.646Z,75.60
2022-09-10T10:01:26.572Z,75.57
2022-09-10T10:04:03.376Z,75.30
2022-09-10T10:06:33.786Z,75.49
2022-09-10T10:09:02.122Z,75.47
2022-09-10T10:11:40.561Z,75.31
2022-09-10T10:14:21.360Z,74.89
2022-09-10T10:16:48.764Z,75.12
2022-09-10T10:19:44.662Z,74.50
2022-09-10T10:22:14.258Z,74.41
2022-09-10T10:24:51.685Z,74.50
2022-09-10T10:27:27.294Z,74.33
2022-09-10T10:30:02.020Z,73.75
2022-09-10T10:32:32.581Z,73.90
2022-09-10T10:35:05.168Z,73.27
2022-09-10T10:37:47.028Z,73.49
2022-09-10T10:40:33.957Z,72.97
2022-09-10T10:43:15.987Z,73.05
2022-09-10T10:45:51.804Z,73.12
2022-09-10T10:48:24.512Z,73.09
2022-09-10T10:50:56.886Z,73.25
2022-09-10T10:53:37.069Z,73.24
2022-09-10T10:56:22.467Z,72.70
2022-09-10T10:58:54.506Z,73.12
2022-09-10T11:01:23.135Z,72.62
2022-09-10T11:03:56.388Z,72.38
2022-09-10T11:06:26.111Z,72.32
2022-09-10T11:09:04.752Z,72.33
2022-09-10T11:11:35.778Z,72.65
2022-09-10T11:14:15.447Z,72.59
2022-09-10T11:16:46.186Z,72.23
2022-09-10T11:19:16.272Z,72.34
2022-09-10T11:21:45.949Z,72.16
2022-09-10T11:24:16.825Z,72.65
2022-09-10T11:26:45.694Z,72.18
2022-09-10T11:29:25.605Z,72.03
2022-09-10T11:32:18.548Z,72.03
2022-09-10T11:34:48.008Z,72.03
2022-09-10T11:37:18.415Z,71.89
2022-09-10T11:39:47.582Z,72.17
2022-09-10T11:42:40.474Z,72.01
2022-09-10T11:45:20.302Z,71.87
2022-09-10T11:48:00.423Z,72.07
2022-09-10T11:50:34.452Z,72.27
2022-09-10T11:53:02.612Z,72.12
2022-09-10T11:55:53.808Z,71.89
2022-09-10T11:58:38.936Z,71.96
2022-09-10T12:01:24.706Z,71.84
2022-09-10T12:04:15.626Z,72.00
2022-09-10T12:07:01.768Z,72.11
2022-09-10T12:09:37.878Z,71.78
2022-09-10T12:12:17.720Z,71.91
2022-09-10T12:14:44.293Z,71.68
2022-09-10T12:17:15.104Z,72.01
2022-09-10T12:19:46.410Z,72.13
2022-09-10T12:22:35.896Z,71.94
2022-09-10T12:25:07.332Z,71.73
2022-09-10T12:27:45.639Z,71.90
2022-09-10T12:30:24.283Z,71.49
2022-09-10T12:32:53.105Z,71.61
2022-09-10T12:35:31.672Z,71.46
2022-09-10T12:38:17.095Z,71.92
2022-09-10T12:40:44.831Z,71.63
2022-09-10T12:43:29.926Z,71.51
2022-09-10T12:46:16.571Z,71.60
2022-09-10T12:48:48.160Z,71.70
2022-09-10T12:51:14.766Z,71.75
2022-09-10T12:53:41.471Z,71.60
2022-09-10T12:56:15.745Z,71.79
2022-09-10T12:58:54.553Z,71.78
2022-09-10T13:01:39.674Z,71.76
2022-09-10T13:04:20.224Z,71.56
2022-09-10T13:06:49.929Z,71.58
2022-09-10T13:09:36.726Z,71.31
2022-09-10T13:12:16.679Z,71.36
2022-09-10T13:14:46.426Z,71.50
2022-09-10T13:17:31.611Z,71.46
2022-09-10T13:20:12.415Z,71.46
2022-09-10T13:22:57.278Z,71.09
2022-09-10T13:25:48.098Z,71.24
2022-09-10T13:28:37.143Z,71.28
2022-09-10T13:31:09.098Z,71.34
2022-09-10T13:33:55.702Z,71.53
2022-09-10T13:36:28.485Z,71.19
2022-09-10T13:39:02.639Z,71.23
2022-09-10T13:41:35.518Z,71.33
2022-09-10T13:44:07.879Z,71.31
2022-09-10T13:46:41.959Z,71.25
2022-09-10T13:49:15.047Z,71.30
2022-09-10T13:51:47.944Z,71.12
2022-09-10T13:54:35.125Z,71.29
2022-09-10T13:57:13.377Z,71.06
2022-09-10T13:59:41.338Z,71.39
2022-09-10T14:02:08.131Z,71.36
2022-09-10T14:04:41.958Z,71.11
2022-09-10T14:07:16.722Z,70.85
2022-09-10T14:09:46.634Z,71.25
2022-09-10T14:12:14.744Z,71.37
2022-09-10T14:14:44.049Z,70.92
2022-09-10T14:17:13.505Z,71.23
2022-09-10T14:19:44.418Z,70.96
2022-09-10T14:22:22.383Z,70.81
2022-09-10T14:24:53.396Z,70.88
2022-09-10T14:27:27.070Z,71.11
2022-09-10T14:29:56.532Z,70.88
2022-09-10T14:32:23.128Z,70.83
2022-09-10T14:34:49.703Z,70.60
2022-09-10T14:37:33.821Z,70.66
2022-09-10T14:40:05.110Z,70.59
2022-09-10T14:42:34.304Z,70.93
2022-09-10T14:45:01.180Z,70.83
2022-09-10T14:47:35.960Z,70.77
2022-09-10T14:50:21.267Z,70.72
2022-09-10T14:52:48.457Z,70.77
2022-09-10T14:55:15.728Z,70.85
2022-09-10T14:57:42.387Z,70.83
2022-09-10T15:00:13.485Z,70.38
2022-09-10T15:02:40.891Z,70.44
2022-09-10T15:05:14.410Z,70.58
2022-09-10T15:07:41.534Z,70.70
2022-09-10T15:10:08.416Z,70.69
2022-09-10T15:12:35.943Z,70.87
2022-09-10T15:15:02.715Z,70.56
2022-09-10T15:17:29.619Z,70.24
2022-09-10T15:19:56.417Z,70.57
2022-09-10T15:22:24.975Z,70.69
2022-09-10T15:25:09.140Z,70.65
2022-09-10T15:27:37.083Z,70.66
2022-09-10T15:30:05.476Z,70.70
2022-09-10T15:32:32.159Z,70.67
2022-09-10T15:34:59.225Z,70.35
2022-09-10T15:37:25.826Z,70.69
2022-09-10T15:39:53.366Z,70.50
2022-09-10T15:42:19.954Z,70.58
2022-09-10T15:44:46.565Z,70.46
2022-09-10T15:47:13.195Z,70.35
2022-09-10T15:49:39.787Z,70.20
2022-09-10T15:52:06.366Z,70.74
2022-09-10T15:54:34.068Z,70.38
2022-09-10T15:57:01.298Z,70.63
2022-09-10T15:59:28.818Z,70.35
2022-09-10T16:01:55.547Z,70.43
2022-09-10T16:04:22.165Z,70.28
2022-09-10T16:06:48.751Z,70.28
2022-09-10T16:09:15.580Z,70.70
2022-09-10T16:11:42.623Z,70.49
2022-09-10T16:14:11.989Z,70.92
2022-09-10T16:16:39.243Z,70.55
2022-09-10T16:19:06.095Z,70.82
2022-09-10T16:21:34.139Z,70.39
2022-09-10T16:24:01.301Z,70.67
2022-09-10T16:26:32.246Z,70.95
2022-09-10T16:28:59.702Z,70.81
2022-09-10T16:31:28.567Z,70.78
2022-09-10T16:33:56.800Z,70.96
2022-09-10T16:36:26.249Z,70.98
2022-09-10T16:38:54.327Z,71.08
2022-09-10T16:41:21.621Z,70.90
2022-09-10T16:43:48.241Z,70.75
2022-09-10T16:46:14.975Z,70.89
2022-09-10T16:48:43.343Z,70.76
2022-09-10T16:51:10.367Z,71.30
2022-09-10T16:53:39.208Z,71.12
2022-09-10T16:56:12.729Z,71.28
2022-09-10T16:58:39.912Z,71.67
2022-09-10T17:01:09.162Z,71.82
2022-09-10T17:03:39.290Z,71.33
2022-09-10T17:06:06.554Z,72.10
2022-09-10T17:08:33.779Z,71.83
2022-09-10T17:11:00.405Z,71.61
2022-09-10T17:13:27.462Z,71.99
2022-09-10T17:16:12.055Z,71.85
2022-09-10T17:18:38.749Z,71.83
2022-09-10T17:21:05.485Z,71.65
2022-09-10T17:23:32.078Z,71.59
2022-09-10T17:25:58.766Z,71.23
2022-09-10T17:28:25.399Z,71.51
2022-09-10T17:30:56.534Z,71.64
2022-09-10T17:33:27.175Z,71.81
2022-09-10T17:35:55.290Z,71.39
2022-09-10T17:38:22.027Z,71.67
2022-09-10T17:40:54.196Z,71.79
2022-09-10T17:43:24.305Z,71.44
2022-09-10T17:45:53.804Z,71.23
2022-09-10T17:48:20.540Z,71.49
2022-09-10T17:50:48.857Z,71.20
2022-09-10T17:53:16.188Z,71.50
2022-09-10T17:55:48.994Z,71.60
2022-09-10T17:58:16.875Z,71.66
2022-09-10T18:00:48.726Z,71.83
2022-09-10T18:03:18.321Z,71.64
2022-09-10T18:05:46.106Z,71.41
2022-09-10T18:08:13.398Z,71.87
2022-09-10T18:10:40.741Z,71.67
2022-09-10T18:13:08.354Z,71.75
2022-09-10T18:15:43.317Z,72.01
2022-09-10T18:18:10.164Z,71.81
2022-09-10T18:20:36.828Z,71.93
2022-09-10T18:23:03.612Z,71.49
2022-09-10T18:25:31.026Z,71.85
2022-09-10T18:27:58.067Z,71.59
2022-09-10T18:30:29.302Z,71.49
2022-09-10T18:32:57.316Z,71.84
2022-09-10T18:35:25.014Z,71.66
2022-09-10T18:38:12.305Z,71.83
2022-09-10T18:40:42.750Z,71.82
2022-09-10T18:43:09.532Z,71.97
2022-09-10T18:45:44.010Z,72.21
2022-09-10T18:48:10.615Z,72.25
2022-09-10T18:50:37.175Z,71.82
2022-09-10T18:53:03.750Z,71.62
2022-09-10T18:55:30.355Z,71.51
2022-09-10T18:57:57.601Z,71.43
2022-09-10T19:00:24.219Z,71.58
2022-09-10T19:02:50.898Z,71.58
2022-09-10T19:05:17.617Z,71.57
2022-09-10T19:07:44.626Z,72.65
2022-09-10T19:10:11.223Z,72.86
2022-09-10T19:12:37.842Z,73.66
2022-09-10T19:15:04.548Z,73.01
2022-09-10T19:17:31.612Z,73.10
2022-09-10T19:19:58.370Z,73.42
2022-09-10T19:22:25.009Z,73.13
2022-09-10T19:24:56.144Z,73.12
2022-09-10T19:27:23.596Z,73.30
2022-09-10T19:29:50.527Z,73.19
2022-09-10T19:32:18.034Z,72.88
2022-09-10T19:34:44.864Z,73.65
2022-09-10T19:37:33.708Z,73.56
2022-09-10T19:40:00.795Z,73.44
2022-09-10T19:42:27.987Z,73.97
2022-09-10T19:44:54.886Z,73.87
2022-09-10T19:47:22.413Z,73.31
2022-09-10T19:49:50.849Z,73.64
2022-09-10T19:52:18.146Z,73.25
2022-09-10T19:54:45.435Z,73.49
2022-09-10T19:57:12.815Z,73.08
2022-09-10T19:59:40.226Z,73.33
2022-09-10T20:02:07.458Z,73.18
2022-09-10T20:04:35.853Z,73.68
2022-09-10T20:07:02.715Z,73.79
2022-09-10T20:09:30.167Z,73.55
2022-09-10T20:11:56.886Z,74.05
2022-09-10T20:14:24.097Z,73.99
2022-09-10T20:16:51.705Z,73.87
2022-09-10T20:19:19.045Z,73.40
2022-09-10T20:21:48.108Z,73.82
2022-09-10T20:24:16.023Z,73.60
2022-09-10T20:26:44.490Z,73.53
2022-09-10T20:29:13.345Z,73.58
2022-09-10T20:31:42.414Z,74.26
2022-09-10T20:34:39.522Z,74.71
2022-09-10T20:37:25.140Z,74.56
2022-09-10T20:39:57.280Z,74.22
2022-09-10T20:42:28.119Z,74.56
2022-09-10T20:44:55.904Z,74.29
2022-09-10T20:47:26.614Z,74.42
2022-09-10T20:49:53.617Z,74.67
2022-09-10T20:52:20.521Z,74.33
2022-09-10T20:57:13.858Z,74.90
2022-09-10T20:59:41.031Z,75.07
2022-09-10T21:02:09.474Z,75.52
2022-09-10T21:04:36.662Z,75.47
2022-09-10T21:07:03.636Z,76.05
2022-09-10T21:09:30.788Z,75.73
2022-09-10T21:11:59.909Z,76.69
2022-09-10T21:14:27.528Z,76.77
2022-09-10T21:16:54.577Z,76.63
2022-09-10T21:19:23.509Z,77.22
2022-09-10T21:21:50.372Z,77.38
2022-09-10T21:24:20.441Z,78.01
2022-09-10T21:26:47.622Z,78.52
2022-09-10T21:29:16.168Z,78.39
2022-09-10T21:36:38.761Z,77.02
2022-09-10T21:39:07.219Z,76.10
2022-09-10T21:41:35.827Z,75.63
2022-09-10T21:44:04.493Z,75.35
2022-09-10T21:46:32.950Z,75.53
2022-09-10T21:49:00.200Z,75.56
2022-09-10T21:51:27.529Z,75.50
2022-09-10T21:53:56.098Z,75.75
2022-09-10T21:56:24.014Z,75.57
2022-09-10T21:58:51.128Z,75.94
2022-09-10T22:01:20.044Z,75.72
2022-09-10T22:03:47.557Z,75.50
2022-09-10T22:06:16.526Z,75.43
2022-09-10T22:08:44.649Z,75.60
2022-09-10T22:11:14.721Z,75.38
2022-09-10T22:13:42.875Z,75.69
2022-09-10T22:18:41.677Z,76.69
2022-09-10T22:21:09.474Z,76.45
2022-09-10T22:23:37.911Z,76.84
2022-09-10T22:26:07.749Z,76.83
2022-09-10T22:28:35.437Z,76.68
2022-09-10T22:31:05.678Z,77.08
2022-09-10T22:36:08.243Z,77.28
2022-09-10T22:41:03.481Z,77.39
2022-09-10T22:43:30.387Z,78.32
2022-09-10T22:45:58.818Z,77.66
2022-09-10T22:48:25.813Z,77.47
2022-09-10T22:50:52.673Z,77.44
2022-09-10T22:53:19.581Z,77.49
2022-09-10T22:55:46.569Z,77.55
2022-09-10T22:58:13.517Z,77.52
2022-09-10T23:00:40.456Z,78.08
2022-09-10T23:03:07.491Z,77.67
2022-09-10T23:05:35.618Z,77.50
2022-09-10T23:08:02.954Z,77.87
2022-09-10T23:10:29.982Z,77.46
2022-09-10T23:12:57.202Z,78.11
2022-09-10T23:15:24.332Z,77.95
2022-09-10T23:17:51.549Z,77.80
2022-09-10T23:20:18.537Z,77.98
2022-09-10T23:22:48.139Z,77.84
2022-09-10T23:25:15.042Z,77.89
2022-09-10T23:27:41.919Z,78.05
2022-09-10T23:30:09.462Z,78.43
2022-09-10T23:32:36.412Z,78.46
2022-09-10T23:35:03.422Z,77.99
2022-09-10T23:37:30.308Z,78.01
2022-09-10T23:39:57.740Z,78.39
2022-09-10T23:42:24.716Z,78.69
2022-09-10T23:44:51.692Z,78.60
2022-09-10T23:47:18.751Z,78.27
2022-09-10T23:49:45.740Z,78.51
2022-09-10T23:52:12.825Z,78.10
2022-09-10T23:54:39.748Z,78.71
2022-09-10T23:57:06.749Z,78.81
2022-09-10T23:59:33.761Z,78.61
